createdAt,value
2023-02-11T00:02:29.636Z,8.10
2023-02-11T00:05:33.821Z,8.60
2023-02-11T00:08:36.537Z,8.30
2023-02-11T00:11:41.463Z,7.87
2023-02-11T00:14:51.657Z,8.43
2023-02-11T00:17:57.321Z,8.87
2023-02-11T00:21:14.535Z,9.87
2023-02-11T00:35:14.015Z,9.73
2023-02-11T00:42:05.112Z,9.60
2023-02-11T00:45:11.094Z,10.17
2023-02-11T00:51:46.542Z,9.70
2023-02-11T00:54:56.326Z,10.37
2023-02-11T00:58:01.352Z,10.70
2023-02-11T01:01:09.435Z,10.47
2023-02-11T01:04:16.179Z,9.60
2023-02-11T01:07:24.309Z,9.90
2023-02-11T01:10:40.822Z,10.37
2023-02-11T01:13:46.090Z,9.07
2023-02-11T01:16:51.034Z,10.67
2023-02-11T01:19:59.296Z,11.60
2023-02-11T01:26:34.709Z,9.43
2023-02-11T01:45:38.687Z,9.10
2023-02-11T01:53:29.602Z,8.83
2023-02-11T01:57:17.735Z,9.67
2023-02-11T02:08:45.545Z,8.50
2023-02-11T02:11:48.493Z,9.13
2023-02-11T02:14:51.301Z,9.80
2023-02-11T02:18:11.093Z,7.90
2023-02-11T02:22:04.366Z,9.53
2023-02-11T02:25:26.125Z,8.13
2023-02-11T02:28:56.410Z,8.57
2023-02-11T02:32:18.545Z,9.53
2023-02-11T02:35:30.625Z,9.03
2023-02-11T02:38:38.774Z,9.00
2023-02-11T02:41:43.272Z,8.03
2023-02-11T02:44:50.222Z,9.97
2023-02-11T02:47:54.393Z,9.57
2023-02-11T02:51:05.655Z,9.10
2023-02-11T02:54:37.664Z,9.83
2023-02-11T02:57:55.736Z,9.43
2023-02-11T03:01:05.613Z,9.93
2023-02-11T03:04:18.489Z,9.20
2023-02-11T03:07:28.749Z,10.30
2023-02-11T03:10:34.150Z,9.67
2023-02-11T03:13:39.077Z,10.57
2023-02-11T03:16:42.496Z,10.13
2023-02-11T03:19:49.187Z,10.33
2023-02-11T03:22:56.781Z,10.13
2023-02-11T03:26:06.219Z,10.27
2023-02-11T03:29:17.841Z,9.13
2023-02-11T03:32:26.288Z,10.17
2023-02-11T03:35:36.986Z,9.20
2023-02-11T03:38:46.383Z,9.33
2023-02-11T03:41:50.905Z,8.83
2023-02-11T03:44:58.326Z,9.97
2023-02-11T03:48:03.714Z,8.47
2023-02-11T03:51:10.517Z,9.83
2023-02-11T03:54:19.316Z,10.40
2023-02-11T03:57:22.134Z,9.20
2023-02-11T04:00:31.292Z,9.97
2023-02-11T04:03:34.086Z,9.80
2023-02-11T04:06:38.276Z,10.10
2023-02-11T04:09:40.957Z,10.10
2023-02-11T04:12:43.942Z,10.27
2023-02-11T04:15:48.820Z,10.13
2023-02-11T04:18:51.764Z,9.43
2023-02-11T04:21:56.131Z,9.23
2023-02-11T04:24:58.819Z,9.00
2023-02-11T04:28:01.631Z,9.10
2023-02-11T04:31:04.536Z,8.80
2023-02-11T04:34:07.309Z,9.27
2023-02-11T04:37:11.267Z,9.57
2023-02-11T04:40:14.114Z,9.77
2023-02-11T04:43:17.360Z,8.80
2023-02-11T04:46:20.061Z,10.07
2023-02-11T04:49:22.842Z,10.83
2023-02-11T04:52:27.350Z,10.77
2023-02-11T04:55:30.055Z,9.77
2023-02-11T04:58:32.691Z,9.50
2023-02-11T05:01:35.861Z,10.60
2023-02-11T05:04:38.706Z,10.30
2023-02-11T05:07:42.725Z,10.33
2023-02-11T05:10:47.401Z,10.63
2023-02-11T05:13:50.257Z,10.07
2023-02-11T05:16:53.009Z,11.40
2023-02-11T05:19:55.644Z,10.40
2023-02-11T05:22:59.677Z,10.37
2023-02-11T05:26:02.681Z,12.37
2023-02-11T05:29:05.326Z,11.03
2023-02-11T05:32:09.014Z,11.40
2023-02-11T05:35:11.647Z,12.90
2023-02-11T05:38:15.723Z,11.07
2023-02-11T05:41:18.432Z,11.33
2023-02-11T05:44:21.078Z,10.30
2023-02-11T05:47:23.955Z,11.50
2023-02-11T05:50:27.422Z,11.33
2023-02-11T05:53:31.411Z,10.57
2023-02-11T05:56:34.156Z,10.57
2023-02-11T05:59:36.812Z,9.77
2023-02-11T06:02:39.584Z,10.80
2023-02-11T06:05:43.747Z,10.53
2023-02-11T06:08:47.793Z,11.43
2023-02-11T06:11:50.519Z,11.23
2023-02-11T06:14:53.229Z,11.73
2023-02-11T06:17:55.916Z,11.90
2023-02-11T06:21:01.003Z,11.93
2023-02-11T06:24:05.633Z,11.47
2023-02-11T06:27:08.359Z,11.77
2023-02-11T06:30:12.353Z,11.07
2023-02-11T06:33:15.057Z,12.50
2023-02-11T06:36:21.417Z,10.10
2023-02-11T06:39:25.832Z,11.80
2023-02-11T06:42:28.548Z,11.33
2023-02-11T06:45:31.247Z,12.07
2023-02-11T06:48:34.713Z,11.10
2023-02-11T06:51:37.752Z,11.90
2023-02-11T06:54:42.001Z,11.43
2023-02-11T06:57:44.665Z,11.73
2023-02-11T07:00:47.307Z,11.33
2023-02-11T07:03:50.306Z,10.60
2023-02-11T07:06:52.990Z,10.40
2023-02-11T07:09:57.025Z,10.80
2023-02-11T07:12:59.702Z,9.87
2023-02-11T07:16:05.938Z,10.60
2023-02-11T07:19:08.648Z,11.40
2023-02-11T07:22:11.292Z,11.23
2023-02-11T07:25:15.446Z,12.07
2023-02-11T07:28:18.185Z,11.70
2023-02-11T07:31:22.680Z,10.20
2023-02-11T07:34:25.468Z,11.87
2023-02-11T07:37:28.491Z,10.60
2023-02-11T07:40:32.837Z,11.97
2023-02-11T07:43:36.707Z,12.60
2023-02-11T07:46:43.016Z,11.47
2023-02-11T07:49:46.436Z,11.27
2023-02-11T07:52:49.273Z,11.13
2023-02-11T07:55:53.441Z,11.70
2023-02-11T07:58:58.036Z,11.77
2023-02-11T08:02:00.985Z,12.47
2023-02-11T08:05:03.677Z,11.90
2023-02-11T08:08:06.420Z,11.10
2023-02-11T08:11:12.718Z,12.20
2023-02-11T08:14:15.411Z,12.80
2023-02-11T08:17:18.235Z,11.70
2023-02-11T08:20:21.322Z,11.63
2023-02-11T08:23:24.408Z,11.70
2023-02-11T08:26:31.696Z,13.47
2023-02-11T08:29:34.531Z,12.73
2023-02-11T08:32:37.438Z,10.80
2023-02-11T08:35:40.567Z,10.57
2023-02-11T08:38:44.011Z,10.40
2023-02-11T08:41:49.447Z,10.60
2023-02-11T08:44:52.132Z,11.20
2023-02-11T08:47:54.946Z,11.07
2023-02-11T08:50:58.444Z,11.97
2023-02-11T08:54:01.949Z,11.77
2023-02-11T08:57:06.362Z,11.87
2023-02-11T09:00:11.153Z,11.33
2023-02-11T09:03:14.191Z,11.53
2023-02-11T09:06:18.587Z,11.53
2023-02-11T09:09:21.391Z,9.93
2023-02-11T09:12:25.513Z,17.33
2023-02-11T09:15:28.297Z,11.27
2023-02-11T09:18:31.147Z,12.03
2023-02-11T09:21:34.024Z,10.40
2023-02-11T09:24:37.258Z,11.07
2023-02-11T09:27:41.302Z,11.70
2023-02-11T09:30:44.008Z,11.00
2023-02-11T09:33:49.838Z,12.53
2023-02-11T09:36:52.541Z,11.57
2023-02-11T09:39:55.171Z,11.30
2023-02-11T09:43:04.573Z,11.20
2023-02-11T09:46:07.530Z,10.93
2023-02-11T09:49:22.478Z,11.10
2023-02-11T09:52:34.581Z,10.70
2023-02-11T09:55:42.684Z,8.67
2023-02-11T09:58:47.153Z,7.43
2023-02-11T10:01:54.636Z,7.20
2023-02-11T10:05:18.499Z,5.40
2023-02-11T10:08:31.700Z,5.20
2023-02-11T10:11:43.090Z,5.32
2023-02-11T10:15:05.277Z,5.57
2023-02-11T10:18:38.250Z,5.40
2023-02-11T10:21:52.832Z,5.00
2023-02-11T10:24:58.322Z,4.22
2023-02-11T10:28:11.347Z,3.38
2023-02-11T10:31:19.501Z,3.22
2023-02-11T10:34:22.491Z,2.80
2023-02-11T10:37:25.144Z,2.88
2023-02-11T10:40:29.772Z,3.05
2023-02-11T10:43:33.777Z,3.67
2023-02-11T10:46:40.206Z,2.75
2023-02-11T10:49:44.501Z,3.03
2023-02-11T10:52:47.206Z,3.17
2023-02-11T10:55:55.345Z,3.42
2023-02-11T10:59:02.754Z,3.28
2023-02-11T11:02:22.095Z,3.20
2023-02-11T11:05:31.407Z,3.28
2023-02-11T11:08:43.696Z,3.13
2023-02-11T11:11:53.950Z,3.22
2023-02-11T11:14:57.843Z,3.10
2023-02-11T11:18:23.068Z,3.20
2023-02-11T11:21:29.807Z,3.10
2023-02-11T11:24:35.256Z,3.20
2023-02-11T11:27:37.971Z,3.47
2023-02-11T11:30:43.767Z,4.18
2023-02-11T11:33:49.379Z,3.58
2023-02-11T11:36:52.773Z,3.35
2023-02-11T11:39:59.068Z,3.53
2023-02-11T11:43:23.033Z,3.95
2023-02-11T11:46:31.721Z,4.15
2023-02-11T11:49:40.465Z,3.75
2023-02-11T11:52:48.997Z,4.28
2023-02-11T11:56:00.769Z,3.95
2023-02-11T11:59:08.132Z,3.78
2023-02-11T12:02:36.480Z,5.80
2023-02-11T12:05:47.986Z,4.25
2023-02-11T12:08:59.517Z,4.35
2023-02-11T12:12:24.174Z,4.25
2023-02-11T12:15:35.539Z,4.32
2023-02-11T12:18:54.620Z,4.07
2023-02-11T12:22:06.649Z,4.10
2023-02-11T12:25:27.122Z,4.05
2023-02-11T12:28:39.626Z,4.00
2023-02-11T12:31:57.520Z,4.68
2023-02-11T12:35:29.049Z,4.82
2023-02-11T12:38:53.932Z,3.92
2023-02-11T12:42:33.564Z,3.55
2023-02-11T12:46:10.800Z,4.30
2023-02-11T12:49:38.112Z,4.25
2023-02-11T12:52:59.419Z,4.60
2023-02-11T12:56:09.888Z,6.55
2023-02-11T12:59:19.347Z,7.07
2023-02-11T13:02:31.641Z,5.88
2023-02-11T13:05:41.944Z,6.97
2023-02-11T13:08:48.823Z,6.75
2023-02-11T13:11:58.312Z,7.47
2023-02-11T13:15:06.279Z,8.45
2023-02-11T13:18:20.459Z,8.35
2023-02-11T13:21:35.691Z,8.65
2023-02-11T13:24:45.267Z,8.60
2023-02-11T13:27:58.978Z,8.38
2023-02-11T13:31:03.582Z,8.60
2023-02-11T13:34:24.778Z,8.15
2023-02-11T13:37:33.880Z,8.32
2023-02-11T13:40:39.456Z,9.65
2023-02-11T13:43:44.640Z,8.27
2023-02-11T13:47:08.657Z,8.35
2023-02-11T13:50:24.885Z,8.48
2023-02-11T13:53:28.876Z,8.68
2023-02-11T13:56:33.726Z,7.65
2023-02-11T13:59:49.319Z,8.20
2023-02-11T14:03:39.071Z,7.57
2023-02-11T14:07:43.147Z,7.88
2023-02-11T14:10:53.971Z,7.68
2023-02-11T14:14:15.912Z,8.05
2023-02-11T14:17:28.415Z,7.60
2023-02-11T14:20:43.267Z,7.25
2023-02-11T14:23:46.838Z,7.22
2023-02-11T14:26:55.034Z,8.02
2023-02-11T14:30:21.116Z,8.18
2023-02-11T14:33:52.096Z,7.97
2023-02-11T14:37:08.114Z,7.95
2023-02-11T14:40:20.120Z,7.95
2023-02-11T14:43:29.106Z,7.38
2023-02-11T14:46:34.050Z,8.30
2023-02-11T14:49:41.458Z,7.95
2023-02-11T14:52:45.287Z,8.52
2023-02-11T14:55:50.409Z,7.95
2023-02-11T14:58:54.939Z,7.50
2023-02-11T15:01:58.618Z,7.70
2023-02-11T15:05:26.044Z,6.87
2023-02-11T15:08:30.671Z,7.73
2023-02-11T15:11:39.742Z,8.40
2023-02-11T15:14:48.860Z,8.70
2023-02-11T15:17:51.980Z,7.67
2023-02-11T15:20:56.216Z,7.87
2023-02-11T15:24:01.610Z,6.93
2023-02-11T15:27:12.835Z,8.70
2023-02-11T15:30:29.853Z,8.17
2023-02-11T15:33:33.936Z,8.37
2023-02-11T15:36:39.303Z,8.27
2023-02-11T15:39:43.247Z,8.80
2023-02-11T15:42:57.411Z,8.33
2023-02-11T15:46:02.834Z,8.07
2023-02-11T15:49:08.018Z,7.97
2023-02-11T15:52:17.411Z,9.03
2023-02-11T15:55:21.601Z,8.73
2023-02-11T15:58:25.166Z,8.90
2023-02-11T16:01:34.021Z,8.10
2023-02-11T16:04:37.768Z,9.13
2023-02-11T16:07:49.643Z,8.60
2023-02-11T16:10:58.631Z,9.13
2023-02-11T16:14:05.806Z,8.53
2023-02-11T16:17:13.063Z,8.63
2023-02-11T16:20:20.098Z,8.50
2023-02-11T16:23:26.638Z,8.70
2023-02-11T16:26:33.472Z,9.63
2023-02-11T16:29:38.153Z,7.63
2023-02-11T16:32:40.880Z,9.03
2023-02-11T16:35:47.472Z,9.40
2023-02-11T16:38:51.512Z,8.50
2023-02-11T16:41:54.344Z,9.37
2023-02-11T16:44:56.976Z,9.10
2023-02-11T16:48:00.101Z,9.87
2023-02-11T16:51:03.422Z,9.90
2023-02-11T16:54:08.016Z,9.20
2023-02-11T16:57:15.334Z,9.37
2023-02-11T17:00:19.095Z,9.27
2023-02-11T17:03:24.419Z,8.93
2023-02-11T17:06:28.823Z,8.77
2023-02-11T17:09:32.841Z,8.97
2023-02-11T17:12:35.535Z,9.93
2023-02-11T17:15:38.644Z,9.57
2023-02-11T17:18:41.305Z,10.20
2023-02-11T17:21:44.539Z,11.97
2023-02-11T17:24:48.622Z,10.93
2023-02-11T17:27:52.882Z,9.63
2023-02-11T17:30:55.765Z,10.50
2023-02-11T17:33:58.441Z,10.73
2023-02-11T17:37:03.121Z,11.30
2023-02-11T17:40:09.167Z,10.20
2023-02-11T17:43:11.855Z,11.00
2023-02-11T17:46:14.977Z,10.23
2023-02-11T17:49:17.757Z,10.43
2023-02-11T17:52:21.523Z,11.00
2023-02-11T17:55:25.583Z,9.47
2023-02-11T17:58:28.240Z,12.10
2023-02-11T18:01:32.702Z,12.10
2023-02-11T18:04:36.101Z,11.87
2023-02-11T18:07:38.783Z,11.73
2023-02-11T18:10:43.509Z,12.43
2023-02-11T18:13:51.381Z,12.30
2023-02-11T18:16:54.838Z,10.37
2023-02-11T18:19:58.348Z,11.67
2023-02-11T18:23:01.040Z,9.20
2023-02-11T18:26:08.039Z,9.93
2023-02-11T18:29:11.011Z,9.03
2023-02-11T18:32:14.395Z,10.40
2023-02-11T18:35:17.272Z,9.33
2023-02-11T18:38:20.185Z,10.13
2023-02-11T18:41:24.604Z,9.47
2023-02-11T18:44:28.053Z,9.83
2023-02-11T18:47:32.370Z,11.33
2023-02-11T18:50:35.037Z,9.90
2023-02-11T18:53:37.774Z,11.50
2023-02-11T18:56:41.935Z,10.97
2023-02-11T18:59:44.697Z,10.00
2023-02-11T19:02:47.340Z,10.47
2023-02-11T19:05:51.169Z,11.83
2023-02-11T19:08:55.506Z,11.53
2023-02-11T19:12:01.921Z,11.33
2023-02-11T19:15:05.082Z,12.00
2023-02-11T19:18:07.795Z,12.17
2023-02-11T19:21:11.917Z,11.03
2023-02-11T19:24:18.819Z,12.07
2023-02-11T19:27:22.847Z,11.37
2023-02-11T19:30:25.554Z,10.60
2023-02-11T19:33:28.421Z,12.27
2023-02-11T19:36:31.172Z,11.07
2023-02-11T19:39:35.534Z,10.83
2023-02-11T19:42:40.004Z,10.77
2023-02-11T19:45:42.653Z,10.33
2023-02-11T19:48:45.354Z,11.97
2023-02-11T19:51:47.973Z,11.43
2023-02-11T19:54:50.623Z,11.13
2023-02-11T19:57:54.600Z,11.20
2023-02-11T20:01:06.299Z,12.87
2023-02-11T20:04:13.148Z,12.63
2023-02-11T20:07:15.876Z,12.80
2023-02-11T20:10:18.816Z,15.13
2023-02-11T20:13:22.830Z,14.27
2023-02-11T20:16:44.675Z,14.30
2023-02-11T20:19:49.486Z,13.00
2023-02-11T20:22:55.328Z,12.90
2023-02-11T20:25:58.029Z,13.87
2023-02-11T20:29:03.356Z,14.33
2023-02-11T20:32:06.655Z,13.40
2023-02-11T20:35:10.803Z,14.23
2023-02-11T20:38:13.673Z,12.77
2023-02-11T20:41:18.723Z,14.27
2023-02-11T20:44:23.314Z,12.57
2023-02-11T20:47:26.017Z,13.67
2023-02-11T20:50:29.637Z,12.83
2023-02-11T20:53:34.826Z,13.70
2023-02-11T20:56:39.471Z,13.43
2023-02-11T20:59:43.736Z,12.60
2023-02-11T21:02:46.797Z,13.50
2023-02-11T21:05:49.657Z,14.73
2023-02-11T21:08:52.510Z,14.83
2023-02-11T21:11:55.824Z,14.50
2023-02-11T21:14:59.883Z,14.97
2023-02-11T21:18:02.556Z,14.07
2023-02-11T21:21:06.989Z,14.40
2023-02-11T21:24:10.723Z,14.03
2023-02-11T21:27:13.489Z,13.50
2023-02-11T21:30:52.843Z,12.43
2023-02-11T21:34:12.620Z,13.27
2023-02-11T21:37:17.539Z,13.00
2023-02-11T21:40:23.226Z,13.57
2023-02-11T21:43:25.904Z,14.47
2023-02-11T21:46:30.865Z,12.90
2023-02-11T21:49:33.803Z,12.07
2023-02-11T21:52:36.568Z,13.13
2023-02-11T21:55:40.533Z,11.90
2023-02-11T21:58:43.620Z,14.00
2023-02-11T22:01:47.637Z,14.03
2023-02-11T22:04:56.108Z,12.13
2023-02-11T22:07:58.897Z,13.03
2023-02-11T22:11:03.991Z,14.03
2023-02-11T22:14:07.116Z,12.73
2023-02-11T22:17:11.560Z,12.93
2023-02-11T22:20:16.100Z,11.63
2023-02-11T22:23:18.829Z,12.40
2023-02-11T22:26:26.815Z,12.30
2023-02-11T22:29:34.270Z,11.67
2023-02-11T22:32:42.525Z,12.10
2023-02-11T22:35:45.183Z,12.00
2023-02-11T22:38:48.113Z,11.80
2023-02-11T22:41:50.843Z,13.20
2023-02-11T22:44:53.899Z,12.40
2023-02-11T22:48:00.118Z,11.87
2023-02-11T22:51:13.074Z,12.33
2023-02-11T22:54:19.308Z,12.50
2023-02-11T22:57:22.325Z,12.57
2023-02-11T23:00:27.251Z,11.83
2023-02-11T23:03:31.751Z,11.43
2023-02-11T23:06:35.287Z,12.67
2023-02-11T23:09:38.266Z,12.60
2023-02-11T23:12:40.967Z,13.20
2023-02-11T23:15:45.473Z,11.50
2023-02-11T23:18:50.418Z,12.33
2023-02-11T23:21:53.665Z,12.37
2023-02-11T23:24:56.756Z,11.73
2023-02-11T23:27:59.600Z,12.03
2023-02-11T23:31:02.616Z,12.67
2023-02-11T23:34:07.102Z,13.90
2023-02-11T23:37:09.759Z,12.33
2023-02-11T23:40:13.807Z,13.90
2023-02-11T23:43:16.792Z,14.20
2023-02-11T23:46:21.783Z,13.37
2023-02-11T23:49:26.531Z,13.13
2023-02-11T23:53:07.355Z,14.87
